sensor_id;sensor_type;location;lat;lon;timestamp;P1;durP1;ratioP1;P2;durP2;ratioP2
35488;SDS011;21602;55.670;37.578;2023-08-30T00:00:58;14.65;;;11.73;;
35488;SDS011;21602;55.670;37.578;2023-08-30T00:03:25;15.20;;;10.75;;
35488;SDS011;21602;55.670;37.578;2023-08-30T00:05:51;13.85;;;11.30;;
35488;SDS011;21602;55.670;37.578;2023-08-30T00:08:17;16.00;;;11.60;;
35488;SDS011;21602;55.670;37.578;2023-08-30T00:10:46;12.77;;;10.18;;
35488;SDS011;21602;55.670;37.578;2023-08-30T00:13:13;15.35;;;10.45;;
35488;SDS011;21602;55.670;37.578;2023-08-30T00:15:39;17.40;;;12.32;;
35488;SDS011;21602;55.670;37.578;2023-08-30T00:18:06;17.08;;;10.52;;
35488;SDS011;21602;55.670;37.578;2023-08-30T00:20:32;16.27;;;11.52;;
35488;SDS011;21602;55.670;37.578;2023-08-30T00:22:59;14.57;;;11.60;;
35488;SDS011;21602;55.670;37.578;2023-08-30T00:25:25;15.95;;;11.60;;
35488;SDS011;21602;55.670;37.578;2023-08-30T00:27:51;15.85;;;11.90;;
35488;SDS011;21602;55.670;37.578;2023-08-30T00:30:17;17.92;;;12.75;;
35488;SDS011;21602;55.670;37.578;2023-08-30T00:32:43;18.38;;;12.68;;
35488;SDS011;21602;55.670;37.578;2023-08-30T00:35:10;17.33;;;13.27;;
35488;SDS011;21602;55.670;37.578;2023-08-30T00:37:38;17.60;;;14.05;;
35488;SDS011;21602;55.670;37.578;2023-08-30T00:40:06;15.30;;;12.50;;
35488;SDS011;21602;55.670;37.578;2023-08-30T00:44:59;16.35;;;13.18;;
35488;SDS011;21602;55.670;37.578;2023-08-30T00:47:26;18.55;;;13.23;;
35488;SDS011;21602;55.670;37.578;2023-08-30T00:49:52;16.75;;;13.05;;
35488;SDS011;21602;55.670;37.578;2023-08-30T00:52:18;15.43;;;13.20;;
35488;SDS011;21602;55.670;37.578;2023-08-30T00:54:44;16.48;;;12.15;;
35488;SDS011;21602;55.670;37.578;2023-08-30T00:57:10;16.65;;;12.27;;
35488;SDS011;21602;55.670;37.578;2023-08-30T00:59:37;16.02;;;11.35;;
35488;SDS011;21602;55.670;37.578;2023-08-30T01:02:03;18.05;;;13.43;;
35488;SDS011;21602;55.670;37.578;2023-08-30T01:04:33;17.05;;;11.60;;
35488;SDS011;21602;55.670;37.578;2023-08-30T01:06:59;15.98;;;12.57;;
35488;SDS011;21602;55.670;37.578;2023-08-30T01:09:27;14.18;;;11.98;;
35488;SDS011;21602;55.670;37.578;2023-08-30T01:14:59;14.48;;;11.43;;
35488;SDS011;21602;55.670;37.578;2023-08-30T01:17:31;17.45;;;11.43;;
35488;SDS011;21602;55.670;37.578;2023-08-30T01:20:01;17.13;;;11.48;;
35488;SDS011;21602;55.670;37.578;2023-08-30T01:25:32;13.73;;;11.18;;
35488;SDS011;21602;55.670;37.578;2023-08-30T01:28:01;14.68;;;10.27;;
35488;SDS011;21602;55.670;37.578;2023-08-30T01:30:33;13.45;;;11.23;;
35488;SDS011;21602;55.670;37.578;2023-08-30T01:33:02;12.05;;;9.98;;
35488;SDS011;21602;55.670;37.578;2023-08-30T01:35:31;12.87;;;9.77;;
35488;SDS011;21602;55.670;37.578;2023-08-30T01:38:05;11.15;;;9.95;;
35488;SDS011;21602;55.670;37.578;2023-08-30T01:40:34;12.07;;;9.75;;
35488;SDS011;21602;55.670;37.578;2023-08-30T01:43:02;15.20;;;11.10;;
35488;SDS011;21602;55.670;37.578;2023-08-30T01:45:32;9.98;;;8.85;;
35488;SDS011;21602;55.670;37.578;2023-08-30T01:48:00;11.27;;;9.40;;
35488;SDS011;21602;55.670;37.578;2023-08-30T01:50:28;10.93;;;9.55;;
35488;SDS011;21602;55.670;37.578;2023-08-30T01:52:54;12.88;;;9.68;;
35488;SDS011;21602;55.670;37.578;2023-08-30T01:55:23;10.32;;;9.23;;
35488;SDS011;21602;55.670;37.578;2023-08-30T01:57:52;12.18;;;9.52;;
35488;SDS011;21602;55.670;37.578;2023-08-30T02:00:18;10.38;;;9.05;;
35488;SDS011;21602;55.670;37.578;2023-08-30T02:02:46;13.85;;;10.23;;
35488;SDS011;21602;55.670;37.578;2023-08-30T02:05:13;10.27;;;9.20;;
35488;SDS011;21602;55.670;37.578;2023-08-30T02:07:41;11.85;;;10.30;;
35488;SDS011;21602;55.670;37.578;2023-08-30T02:10:15;12.23;;;10.82;;
35488;SDS011;21602;55.670;37.578;2023-08-30T02:12:49;11.70;;;10.15;;
35488;SDS011;21602;55.670;37.578;2023-08-30T02:15:19;12.45;;;10.70;;
35488;SDS011;21602;55.670;37.578;2023-08-30T02:17:48;11.80;;;10.13;;
35488;SDS011;21602;55.670;37.578;2023-08-30T02:20:15;11.70;;;9.93;;
35488;SDS011;21602;55.670;37.578;2023-08-30T02:22:41;12.73;;;10.65;;
35488;SDS011;21602;55.670;37.578;2023-08-30T02:25:07;11.05;;;9.27;;
35488;SDS011;21602;55.670;37.578;2023-08-30T02:27:34;13.52;;;10.40;;
35488;SDS011;21602;55.670;37.578;2023-08-30T02:30:01;12.57;;;9.98;;
35488;SDS011;21602;55.670;37.578;2023-08-30T02:32:32;13.80;;;12.18;;
35488;SDS011;21602;55.670;37.578;2023-08-30T02:34:59;13.00;;;11.63;;
35488;SDS011;21602;55.670;37.578;2023-08-30T02:37:25;14.32;;;12.10;;
35488;SDS011;21602;55.670;37.578;2023-08-30T02:39:51;14.15;;;11.38;;
35488;SDS011;21602;55.670;37.578;2023-08-30T02:42:17;13.52;;;11.20;;
35488;SDS011;21602;55.670;37.578;2023-08-30T02:44:43;14.38;;;12.43;;
35488;SDS011;21602;55.670;37.578;2023-08-30T02:47:09;13.70;;;12.27;;
35488;SDS011;21602;55.670;37.578;2023-08-30T02:49:35;14.85;;;12.70;;
35488;SDS011;21602;55.670;37.578;2023-08-30T02:52:00;15.40;;;12.02;;
35488;SDS011;21602;55.670;37.578;2023-08-30T02:54:26;15.30;;;12.57;;
35488;SDS011;21602;55.670;37.578;2023-08-30T02:56:53;14.95;;;13.38;;
35488;SDS011;21602;55.670;37.578;2023-08-30T02:59:20;15.95;;;14.25;;
35488;SDS011;21602;55.670;37.578;2023-08-30T03:01:46;15.00;;;13.40;;
35488;SDS011;21602;55.670;37.578;2023-08-30T03:06:40;23.88;;;13.77;;
35488;SDS011;21602;55.670;37.578;2023-08-30T03:09:07;15.27;;;13.63;;
35488;SDS011;21602;55.670;37.578;2023-08-30T03:11:36;16.73;;;14.20;;
35488;SDS011;21602;55.670;37.578;2023-08-30T03:14:02;13.45;;;11.95;;
35488;SDS011;21602;55.670;37.578;2023-08-30T03:16:28;14.80;;;13.20;;
35488;SDS011;21602;55.670;37.578;2023-08-30T03:18:55;13.68;;;12.35;;
35488;SDS011;21602;55.670;37.578;2023-08-30T03:21:22;14.43;;;12.90;;
35488;SDS011;21602;55.670;37.578;2023-08-30T03:23:48;13.35;;;12.02;;
35488;SDS011;21602;55.670;37.578;2023-08-30T03:26:15;13.80;;;12.13;;
35488;SDS011;21602;55.670;37.578;2023-08-30T03:28:42;16.60;;;12.97;;
35488;SDS011;21602;55.670;37.578;2023-08-30T03:31:16;13.50;;;12.13;;
35488;SDS011;21602;55.670;37.578;2023-08-30T03:33:45;13.88;;;12.48;;
35488;SDS011;21602;55.670;37.578;2023-08-30T03:36:14;13.07;;;11.77;;
35488;SDS011;21602;55.670;37.578;2023-08-30T03:38:41;13.73;;;12.20;;
35488;SDS011;21602;55.670;37.578;2023-08-30T03:41:08;13.88;;;12.48;;
35488;SDS011;21602;55.670;37.578;2023-08-30T03:43:37;12.82;;;11.52;;
35488;SDS011;21602;55.670;37.578;2023-08-30T03:46:05;13.85;;;12.35;;
35488;SDS011;21602;55.670;37.578;2023-08-30T03:48:31;13.38;;;11.32;;
35488;SDS011;21602;55.670;37.578;2023-08-30T03:50:58;12.93;;;10.98;;
35488;SDS011;21602;55.670;37.578;2023-08-30T03:53:25;14.15;;;11.27;;
35488;SDS011;21602;55.670;37.578;2023-08-30T03:55:51;11.63;;;10.43;;
35488;SDS011;21602;55.670;37.578;2023-08-30T03:58:18;13.10;;;11.63;;
35488;SDS011;21602;55.670;37.578;2023-08-30T04:00:45;13.98;;;10.82;;
35488;SDS011;21602;55.670;37.578;2023-08-30T04:03:12;12.88;;;10.32;;
35488;SDS011;21602;55.670;37.578;2023-08-30T04:08:08;12.98;;;10.25;;
35488;SDS011;21602;55.670;37.578;2023-08-30T04:10:38;12.85;;;11.15;;
35488;SDS011;21602;55.670;37.578;2023-08-30T04:13:05;11.85;;;10.63;;
35488;SDS011;21602;55.670;37.578;2023-08-30T04:15:33;11.35;;;8.68;;
35488;SDS011;21602;55.670;37.578;2023-08-30T04:18:03;11.85;;;9.38;;
35488;SDS011;21602;55.670;37.578;2023-08-30T04:20:30;11.25;;;9.95;;
35488;SDS011;21602;55.670;37.578;2023-08-30T04:22:58;11.67;;;10.33;;
35488;SDS011;21602;55.670;37.578;2023-08-30T04:25:30;10.75;;;9.43;;
35488;SDS011;21602;55.670;37.578;2023-08-30T04:27:57;12.38;;;9.38;;
35488;SDS011;21602;55.670;37.578;2023-08-30T04:30:24;11.27;;;9.48;;
35488;SDS011;21602;55.670;37.578;2023-08-30T04:32:51;9.10;;;8.05;;
35488;SDS011;21602;55.670;37.578;2023-08-30T04:35:17;9.90;;;8.18;;
35488;SDS011;21602;55.670;37.578;2023-08-30T04:37:43;8.60;;;7.70;;
35488;SDS011;21602;55.670;37.578;2023-08-30T04:40:09;7.82;;;7.03;;
35488;SDS011;21602;55.670;37.578;2023-08-30T04:42:36;8.00;;;6.68;;
35488;SDS011;21602;55.670;37.578;2023-08-30T04:45:05;8.10;;;6.88;;
35488;SDS011;21602;55.670;37.578;2023-08-30T04:47:34;7.53;;;6.30;;
35488;SDS011;21602;55.670;37.578;2023-08-30T04:50:02;7.00;;;6.03;;
35488;SDS011;21602;55.670;37.578;2023-08-30T04:52:32;9.55;;;5.75;;
35488;SDS011;21602;55.670;37.578;2023-08-30T04:54:58;7.20;;;5.68;;
35488;SDS011;21602;55.670;37.578;2023-08-30T04:57:29;6.63;;;5.20;;
35488;SDS011;21602;55.670;37.578;2023-08-30T04:59:55;8.40;;;5.22;;
35488;SDS011;21602;55.670;37.578;2023-08-30T05:02:23;6.63;;;5.85;;
35488;SDS011;21602;55.670;37.578;2023-08-30T05:04:59;5.97;;;5.32;;
35488;SDS011;21602;55.670;37.578;2023-08-30T05:07:26;5.95;;;5.40;;
35488;SDS011;21602;55.670;37.578;2023-08-30T05:09:53;7.82;;;5.97;;
35488;SDS011;21602;55.670;37.578;2023-08-30T05:12:19;18.50;;;11.30;;
35488;SDS011;21602;55.670;37.578;2023-08-30T05:14:51;9.52;;;5.82;;
35488;SDS011;21602;55.670;37.578;2023-08-30T05:17:18;9.25;;;5.75;;
35488;SDS011;21602;55.670;37.578;2023-08-30T05:20:00;9.65;;;5.75;;
35488;SDS011;21602;55.670;37.578;2023-08-30T05:22:29;7.63;;;6.20;;
35488;SDS011;21602;55.670;37.578;2023-08-30T05:24:56;7.75;;;6.82;;
35488;SDS011;21602;55.670;37.578;2023-08-30T05:27:24;6.60;;;5.07;;
35488;SDS011;21602;55.670;37.578;2023-08-30T05:32:48;8.02;;;5.15;;
35488;SDS011;21602;55.670;37.578;2023-08-30T05:35:28;5.68;;;5.10;;
35488;SDS011;21602;55.670;37.578;2023-08-30T05:38:17;5.95;;;4.97;;
35488;SDS011;21602;55.670;37.578;2023-08-30T05:41:05;6.28;;;5.25;;
35488;SDS011;21602;55.670;37.578;2023-08-30T05:43:31;7.38;;;5.88;;
35488;SDS011;21602;55.670;37.578;2023-08-30T05:46:01;7.13;;;6.40;;
35488;SDS011;21602;55.670;37.578;2023-08-30T05:48:33;8.57;;;6.05;;
35488;SDS011;21602;55.670;37.578;2023-08-30T05:51:03;9.55;;;5.43;;
35488;SDS011;21602;55.670;37.578;2023-08-30T05:53:29;9.20;;;7.38;;
35488;SDS011;21602;55.670;37.578;2023-08-30T05:55:55;6.43;;;5.70;;
35488;SDS011;21602;55.670;37.578;2023-08-30T05:58:25;8.05;;;5.72;;
35488;SDS011;21602;55.670;37.578;2023-08-30T06:00:51;7.32;;;6.10;;
35488;SDS011;21602;55.670;37.578;2023-08-30T06:03:17;7.40;;;5.93;;
35488;SDS011;21602;55.670;37.578;2023-08-30T06:05:43;7.00;;;5.82;;
35488;SDS011;21602;55.670;37.578;2023-08-30T06:08:09;9.75;;;6.55;;
35488;SDS011;21602;55.670;37.578;2023-08-30T06:10:35;8.50;;;5.72;;
35488;SDS011;21602;55.670;37.578;2023-08-30T06:13:05;17.30;;;11.80;;
35488;SDS011;21602;55.670;37.578;2023-08-30T06:15:38;7.93;;;5.50;;
35488;SDS011;21602;55.670;37.578;2023-08-30T06:18:13;9.38;;;6.10;;
35488;SDS011;21602;55.670;37.578;2023-08-30T06:20:40;11.02;;;6.68;;
35488;SDS011;21602;55.670;37.578;2023-08-30T06:23:07;7.30;;;5.77;;
35488;SDS011;21602;55.670;37.578;2023-08-30T06:25:34;10.30;;;6.95;;
35488;SDS011;21602;55.670;37.578;2023-08-30T06:28:00;6.00;;;5.00;;
35488;SDS011;21602;55.670;37.578;2023-08-30T06:30:34;9.40;;;5.65;;
35488;SDS011;21602;55.670;37.578;2023-08-30T06:33:00;6.28;;;5.68;;
35488;SDS011;21602;55.670;37.578;2023-08-30T06:35:28;16.17;;;12.23;;
35488;SDS011;21602;55.670;37.578;2023-08-30T06:37:54;10.93;;;8.35;;
35488;SDS011;21602;55.670;37.578;2023-08-30T06:40:21;20.00;;;14.30;;
35488;SDS011;21602;55.670;37.578;2023-08-30T06:42:50;6.13;;;4.75;;
35488;SDS011;21602;55.670;37.578;2023-08-30T06:45:25;6.80;;;4.90;;
35488;SDS011;21602;55.670;37.578;2023-08-30T06:47:51;8.95;;;4.80;;
35488;SDS011;21602;55.670;37.578;2023-08-30T06:50:19;8.45;;;5.70;;
35488;SDS011;21602;55.670;37.578;2023-08-30T06:52:48;11.45;;;6.65;;
35488;SDS011;21602;55.670;37.578;2023-08-30T06:55:14;8.98;;;6.78;;
35488;SDS011;21602;55.670;37.578;2023-08-30T06:57:40;5.70;;;4.55;;
35488;SDS011;21602;55.670;37.578;2023-08-30T07:00:06;9.38;;;5.28;;
35488;SDS011;21602;55.670;37.578;2023-08-30T07:02:34;7.53;;;5.28;;
35488;SDS011;21602;55.670;37.578;2023-08-30T07:05:03;6.82;;;5.30;;
35488;SDS011;21602;55.670;37.578;2023-08-30T07:07:31;4.75;;;3.83;;
35488;SDS011;21602;55.670;37.578;2023-08-30T07:09:57;8.00;;;5.10;;
35488;SDS011;21602;55.670;37.578;2023-08-30T07:12:25;12.38;;;4.97;;
35488;SDS011;21602;55.670;37.578;2023-08-30T07:14:51;4.70;;;4.25;;
35488;SDS011;21602;55.670;37.578;2023-08-30T07:17:17;6.15;;;3.70;;
35488;SDS011;21602;55.670;37.578;2023-08-30T07:19:43;5.65;;;4.15;;
35488;SDS011;21602;55.670;37.578;2023-08-30T07:22:11;6.13;;;4.45;;
35488;SDS011;21602;55.670;37.578;2023-08-30T07:24:36;5.38;;;3.55;;
35488;SDS011;21602;55.670;37.578;2023-08-30T07:27:02;11.63;;;5.35;;
35488;SDS011;21602;55.670;37.578;2023-08-30T07:29:29;6.70;;;3.90;;
35488;SDS011;21602;55.670;37.578;2023-08-30T07:31:54;5.95;;;3.90;;
35488;SDS011;21602;55.670;37.578;2023-08-30T07:34:20;7.00;;;3.97;;
35488;SDS011;21602;55.670;37.578;2023-08-30T07:36:46;15.55;;;9.88;;
35488;SDS011;21602;55.670;37.578;2023-08-30T07:39:15;16.02;;;4.10;;
35488;SDS011;21602;55.670;37.578;2023-08-30T07:41:41;6.10;;;3.92;;
35488;SDS011;21602;55.670;37.578;2023-08-30T07:44:07;4.85;;;3.63;;
35488;SDS011;21602;55.670;37.578;2023-08-30T07:46:33;11.13;;;6.88;;
35488;SDS011;21602;55.670;37.578;2023-08-30T07:48:59;6.30;;;5.15;;
35488;SDS011;21602;55.670;37.578;2023-08-30T07:51:27;6.22;;;3.95;;
35488;SDS011;21602;55.670;37.578;2023-08-30T07:53:54;5.70;;;4.47;;
35488;SDS011;21602;55.670;37.578;2023-08-30T07:56:21;16.65;;;5.28;;
35488;SDS011;21602;55.670;37.578;2023-08-30T07:58:47;8.60;;;5.32;;
35488;SDS011;21602;55.670;37.578;2023-08-30T08:01:13;9.23;;;4.72;;
35488;SDS011;21602;55.670;37.578;2023-08-30T08:03:39;9.00;;;6.40;;
35488;SDS011;21602;55.670;37.578;2023-08-30T08:06:06;8.80;;;4.28;;
35488;SDS011;21602;55.670;37.578;2023-08-30T08:08:32;4.53;;;3.88;;
35488;SDS011;21602;55.670;37.578;2023-08-30T08:11:01;6.18;;;4.70;;
35488;SDS011;21602;55.670;37.578;2023-08-30T08:13:29;9.25;;;3.80;;
35488;SDS011;21602;55.670;37.578;2023-08-30T08:15:56;5.13;;;3.40;;
35488;SDS011;21602;55.670;37.578;2023-08-30T08:18:23;6.43;;;3.70;;
35488;SDS011;21602;55.670;37.578;2023-08-30T08:20:49;11.52;;;3.47;;
35488;SDS011;21602;55.670;37.578;2023-08-30T08:23:15;7.53;;;3.88;;
35488;SDS011;21602;55.670;37.578;2023-08-30T08:25:44;9.20;;;4.03;;
35488;SDS011;21602;55.670;37.578;2023-08-30T08:28:10;5.65;;;3.42;;
35488;SDS011;21602;55.670;37.578;2023-08-30T08:30:36;8.15;;;4.82;;
35488;SDS011;21602;55.670;37.578;2023-08-30T08:33:02;11.20;;;4.50;;
35488;SDS011;21602;55.670;37.578;2023-08-30T08:35:28;6.40;;;3.90;;
35488;SDS011;21602;55.670;37.578;2023-08-30T08:37:55;9.90;;;6.43;;
35488;SDS011;21602;55.670;37.578;2023-08-30T08:40:24;10.20;;;4.35;;
35488;SDS011;21602;55.670;37.578;2023-08-30T08:42:50;15.32;;;9.10;;
35488;SDS011;21602;55.670;37.578;2023-08-30T08:45:20;5.72;;;4.18;;
35488;SDS011;21602;55.670;37.578;2023-08-30T08:47:47;9.68;;;5.75;;
35488;SDS011;21602;55.670;37.578;2023-08-30T08:50:14;9.35;;;5.25;;
35488;SDS011;21602;55.670;37.578;2023-08-30T08:52:40;15.27;;;6.85;;
35488;SDS011;21602;55.670;37.578;2023-08-30T08:55:06;11.13;;;5.03;;
35488;SDS011;21602;55.670;37.578;2023-08-30T08:57:36;11.45;;;4.53;;
35488;SDS011;21602;55.670;37.578;2023-08-30T09:00:03;9.25;;;4.40;;
35488;SDS011;21602;55.670;37.578;2023-08-30T09:02:30;6.77;;;4.87;;
35488;SDS011;21602;55.670;37.578;2023-08-30T09:04:59;8.43;;;4.70;;
35488;SDS011;21602;55.670;37.578;2023-08-30T09:07:27;9.23;;;5.10;;
35488;SDS011;21602;55.670;37.578;2023-08-30T09:09:55;6.88;;;4.20;;
35488;SDS011;21602;55.670;37.578;2023-08-30T09:12:21;6.35;;;4.45;;
35488;SDS011;21602;55.670;37.578;2023-08-30T09:14:54;12.93;;;4.47;;
35488;SDS011;21602;55.670;37.578;2023-08-30T09:17:21;10.65;;;4.40;;
35488;SDS011;21602;55.670;37.578;2023-08-30T09:19:47;11.70;;;5.40;;
35488;SDS011;21602;55.670;37.578;2023-08-30T09:22:16;6.75;;;4.65;;
35488;SDS011;21602;55.670;37.578;2023-08-30T09:24:44;11.95;;;4.80;;
35488;SDS011;21602;55.670;37.578;2023-08-30T09:29:41;11.38;;;5.80;;
35488;SDS011;21602;55.670;37.578;2023-08-30T09:32:09;5.70;;;4.35;;
35488;SDS011;21602;55.670;37.578;2023-08-30T09:34:47;13.43;;;9.63;;
35488;SDS011;21602;55.670;37.578;2023-08-30T09:37:23;18.95;;;9.65;;
35488;SDS011;21602;55.670;37.578;2023-08-30T09:39:52;13.45;;;5.05;;
35488;SDS011;21602;55.670;37.578;2023-08-30T09:42:18;6.05;;;4.20;;
35488;SDS011;21602;55.670;37.578;2023-08-30T09:44:44;7.22;;;4.60;;
35488;SDS011;21602;55.670;37.578;2023-08-30T09:47:15;9.23;;;4.40;;
35488;SDS011;21602;55.670;37.578;2023-08-30T09:49:44;6.22;;;4.32;;
35488;SDS011;21602;55.670;37.578;2023-08-30T09:52:15;9.68;;;5.00;;
35488;SDS011;21602;55.670;37.578;2023-08-30T09:54:51;6.80;;;4.47;;
35488;SDS011;21602;55.670;37.578;2023-08-30T09:57:18;11.70;;;4.82;;
35488;SDS011;21602;55.670;37.578;2023-08-30T09:59:44;7.95;;;4.03;;
35488;SDS011;21602;55.670;37.578;2023-08-30T10:02:17;6.18;;;3.42;;
35488;SDS011;21602;55.670;37.578;2023-08-30T10:04:44;11.98;;;8.15;;
35488;SDS011;21602;55.670;37.578;2023-08-30T10:07:11;9.55;;;4.78;;
35488;SDS011;21602;55.670;37.578;2023-08-30T10:09:40;19.67;;;14.90;;
35488;SDS011;21602;55.670;37.578;2023-08-30T10:12:14;5.15;;;3.97;;
35488;SDS011;21602;55.670;37.578;2023-08-30T10:14:44;12.68;;;9.20;;
35488;SDS011;21602;55.670;37.578;2023-08-30T10:17:10;5.18;;;3.63;;
35488;SDS011;21602;55.670;37.578;2023-08-30T10:19:40;10.52;;;3.50;;
35488;SDS011;21602;55.670;37.578;2023-08-30T10:22:11;9.18;;;6.28;;
35488;SDS011;21602;55.670;37.578;2023-08-30T10:24:48;9.55;;;5.20;;
35488;SDS011;21602;55.670;37.578;2023-08-30T10:27:18;13.63;;;3.88;;
35488;SDS011;21602;55.670;37.578;2023-08-30T10:29:47;7.88;;;4.05;;
35488;SDS011;21602;55.670;37.578;2023-08-30T10:32:24;8.15;;;4.05;;
35488;SDS011;21602;55.670;37.578;2023-08-30T10:34:51;15.60;;;6.30;;
35488;SDS011;21602;55.670;37.578;2023-08-30T10:37:23;16.00;;;6.80;;
35488;SDS011;21602;55.670;37.578;2023-08-30T10:39:52;16.30;;;11.77;;
35488;SDS011;21602;55.670;37.578;2023-08-30T10:42:21;10.63;;;3.97;;
35488;SDS011;21602;55.670;37.578;2023-08-30T10:47:34;8.90;;;4.22;;
35488;SDS011;21602;55.670;37.578;2023-08-30T10:50:09;6.45;;;3.50;;
35488;SDS011;21602;55.670;37.578;2023-08-30T10:52:39;8.63;;;3.30;;
35488;SDS011;21602;55.670;37.578;2023-08-30T10:57:45;13.75;;;5.63;;
35488;SDS011;21602;55.670;37.578;2023-08-30T11:02:51;6.70;;;4.35;;
35488;SDS011;21602;55.670;37.578;2023-08-30T11:05:21;7.10;;;3.83;;
35488;SDS011;21602;55.670;37.578;2023-08-30T11:07:52;12.85;;;3.97;;
35488;SDS011;21602;55.670;37.578;2023-08-30T11:10:19;15.80;;;9.25;;
35488;SDS011;21602;55.670;37.578;2023-08-30T11:12:46;7.17;;;3.60;;
35488;SDS011;21602;55.670;37.578;2023-08-30T11:15:14;6.78;;;5.22;;
35488;SDS011;21602;55.670;37.578;2023-08-30T11:17:42;12.95;;;8.80;;
35488;SDS011;21602;55.670;37.578;2023-08-30T11:20:12;10.82;;;4.80;;
35488;SDS011;21602;55.670;37.578;2023-08-30T11:22:40;10.15;;;6.25;;
35488;SDS011;21602;55.670;37.578;2023-08-30T11:25:09;5.43;;;3.65;;
35488;SDS011;21602;55.670;37.578;2023-08-30T11:27:36;5.37;;;3.83;;
35488;SDS011;21602;55.670;37.578;2023-08-30T11:30:02;7.35;;;4.13;;
35488;SDS011;21602;55.670;37.578;2023-08-30T11:32:35;6.15;;;4.18;;
35488;SDS011;21602;55.670;37.578;2023-08-30T11:35:03;5.47;;;4.05;;
35488;SDS011;21602;55.670;37.578;2023-08-30T11:37:33;7.43;;;5.05;;
35488;SDS011;21602;55.670;37.578;2023-08-30T11:40:00;6.05;;;3.67;;
35488;SDS011;21602;55.670;37.578;2023-08-30T11:42:36;6.75;;;3.72;;
35488;SDS011;21602;55.670;37.578;2023-08-30T11:45:09;5.03;;;3.47;;
35488;SDS011;21602;55.670;37.578;2023-08-30T11:47:36;6.28;;;5.40;;
35488;SDS011;21602;55.670;37.578;2023-08-30T11:50:02;13.25;;;4.03;;
35488;SDS011;21602;55.670;37.578;2023-08-30T11:52:36;5.93;;;3.70;;
35488;SDS011;21602;55.670;37.578;2023-08-30T11:55:07;7.20;;;4.85;;
35488;SDS011;21602;55.670;37.578;2023-08-30T11:57:37;5.60;;;4.03;;
35488;SDS011;21602;55.670;37.578;2023-08-30T12:00:10;5.47;;;3.97;;
35488;SDS011;21602;55.670;37.578;2023-08-30T12:02:40;10.60;;;4.22;;
35488;SDS011;21602;55.670;37.578;2023-08-30T12:05:15;7.88;;;3.92;;
35488;SDS011;21602;55.670;37.578;2023-08-30T12:07:45;9.23;;;4.55;;
35488;SDS011;21602;55.670;37.578;2023-08-30T12:10:19;11.65;;;5.10;;
35488;SDS011;21602;55.670;37.578;2023-08-30T12:12:46;6.47;;;4.13;;
35488;SDS011;21602;55.670;37.578;2023-08-30T12:15:13;5.38;;;4.53;;
35488;SDS011;21602;55.670;37.578;2023-08-30T12:17:42;6.47;;;4.15;;
35488;SDS011;21602;55.670;37.578;2023-08-30T12:20:17;6.57;;;4.72;;
35488;SDS011;21602;55.670;37.578;2023-08-30T12:22:46;4.80;;;3.60;;
35488;SDS011;21602;55.670;37.578;2023-08-30T12:25:17;4.87;;;3.50;;
35488;SDS011;21602;55.670;37.578;2023-08-30T12:27:45;10.30;;;4.07;;
35488;SDS011;21602;55.670;37.578;2023-08-30T12:30:15;5.38;;;4.18;;
35488;SDS011;21602;55.670;37.578;2023-08-30T12:32:43;12.20;;;3.97;;
35488;SDS011;21602;55.670;37.578;2023-08-30T12:37:36;10.80;;;5.38;;
35488;SDS011;21602;55.670;37.578;2023-08-30T12:40:02;11.52;;;5.70;;
35488;SDS011;21602;55.670;37.578;2023-08-30T12:42:32;8.25;;;4.35;;
35488;SDS011;21602;55.670;37.578;2023-08-30T12:44:58;11.02;;;5.43;;
35488;SDS011;21602;55.670;37.578;2023-08-30T12:47:24;8.68;;;4.53;;
35488;SDS011;21602;55.670;37.578;2023-08-30T12:49:50;9.45;;;3.92;;
35488;SDS011;21602;55.670;37.578;2023-08-30T12:52:16;15.77;;;4.78;;
35488;SDS011;21602;55.670;37.578;2023-08-30T12:54:48;11.02;;;4.60;;
35488;SDS011;21602;55.670;37.578;2023-08-30T12:57:14;7.50;;;4.72;;
35488;SDS011;21602;55.670;37.578;2023-08-30T12:59:40;11.75;;;4.75;;
35488;SDS011;21602;55.670;37.578;2023-08-30T13:02:06;11.05;;;4.15;;
35488;SDS011;21602;55.670;37.578;2023-08-30T13:04:32;10.27;;;3.70;;
35488;SDS011;21602;55.670;37.578;2023-08-30T13:06:58;14.15;;;3.92;;
35488;SDS011;21602;55.670;37.578;2023-08-30T13:09:24;6.60;;;4.35;;
35488;SDS011;21602;55.670;37.578;2023-08-30T13:11:50;7.15;;;3.63;;
35488;SDS011;21602;55.670;37.578;2023-08-30T13:14:15;9.75;;;4.10;;
35488;SDS011;21602;55.670;37.578;2023-08-30T13:16:41;13.35;;;3.80;;
35488;SDS011;21602;55.670;37.578;2023-08-30T13:19:08;9.93;;;5.63;;
35488;SDS011;21602;55.670;37.578;2023-08-30T13:21:34;11.90;;;3.73;;
35488;SDS011;21602;55.670;37.578;2023-08-30T13:24:00;14.68;;;7.28;;
35488;SDS011;21602;55.670;37.578;2023-08-30T13:26:28;7.57;;;4.13;;
35488;SDS011;21602;55.670;37.578;2023-08-30T13:28:54;20.00;;;5.25;;
35488;SDS011;21602;55.670;37.578;2023-08-30T13:31:22;8.77;;;4.25;;
35488;SDS011;21602;55.670;37.578;2023-08-30T13:33:48;10.75;;;4.30;;
35488;SDS011;21602;55.670;37.578;2023-08-30T13:36:19;16.25;;;4.25;;
35488;SDS011;21602;55.670;37.578;2023-08-30T13:38:48;9.35;;;3.63;;
35488;SDS011;21602;55.670;37.578;2023-08-30T13:41:14;13.05;;;4.47;;
35488;SDS011;21602;55.670;37.578;2023-08-30T13:43:40;9.85;;;5.05;;
35488;SDS011;21602;55.670;37.578;2023-08-30T13:46:16;8.70;;;3.65;;
35488;SDS011;21602;55.670;37.578;2023-08-30T13:48:45;8.00;;;4.07;;
35488;SDS011;21602;55.670;37.578;2023-08-30T13:51:20;8.13;;;3.63;;
35488;SDS011;21602;55.670;37.578;2023-08-30T13:54:03;14.32;;;5.70;;
35488;SDS011;21602;55.670;37.578;2023-08-30T13:56:29;11.05;;;4.28;;
35488;SDS011;21602;55.670;37.578;2023-08-30T13:58:56;14.23;;;5.10;;
35488;SDS011;21602;55.670;37.578;2023-08-30T14:01:22;9.73;;;5.72;;
35488;SDS011;21602;55.670;37.578;2023-08-30T14:03:50;9.77;;;3.97;;
35488;SDS011;21602;55.670;37.578;2023-08-30T14:06:20;13.00;;;4.50;;
35488;SDS011;21602;55.670;37.578;2023-08-30T14:08:46;10.98;;;6.38;;
35488;SDS011;21602;55.670;37.578;2023-08-30T14:11:12;15.38;;;3.80;;
35488;SDS011;21602;55.670;37.578;2023-08-30T14:13:40;11.73;;;3.95;;
35488;SDS011;21602;55.670;37.578;2023-08-30T14:16:06;7.32;;;3.67;;
35488;SDS011;21602;55.670;37.578;2023-08-30T14:18:37;14.80;;;8.52;;
35488;SDS011;21602;55.670;37.578;2023-08-30T14:21:03;13.98;;;5.90;;
35488;SDS011;21602;55.670;37.578;2023-08-30T14:23:32;10.20;;;4.10;;
35488;SDS011;21602;55.670;37.578;2023-08-30T14:25:58;11.57;;;4.82;;
35488;SDS011;21602;55.670;37.578;2023-08-30T14:28:36;9.65;;;4.63;;
35488;SDS011;21602;55.670;37.578;2023-08-30T14:31:02;20.17;;;3.30;;
35488;SDS011;21602;55.670;37.578;2023-08-30T14:33:35;6.85;;;3.67;;
35488;SDS011;21602;55.670;37.578;2023-08-30T14:36:02;8.60;;;4.05;;
35488;SDS011;21602;55.670;37.578;2023-08-30T14:38:28;13.43;;;4.60;;
35488;SDS011;21602;55.670;37.578;2023-08-30T14:41:00;13.48;;;8.60;;
35488;SDS011;21602;55.670;37.578;2023-08-30T14:43:30;8.38;;;4.65;;
35488;SDS011;21602;55.670;37.578;2023-08-30T14:45:59;4.70;;;3.72;;
35488;SDS011;21602;55.670;37.578;2023-08-30T14:48:26;18.10;;;6.22;;
35488;SDS011;21602;55.670;37.578;2023-08-30T14:50:52;13.52;;;5.47;;
35488;SDS011;21602;55.670;37.578;2023-08-30T14:53:18;14.80;;;4.93;;
35488;SDS011;21602;55.670;37.578;2023-08-30T14:55:44;11.45;;;4.18;;
35488;SDS011;21602;55.670;37.578;2023-08-30T14:58:12;9.07;;;4.88;;